sensor_id;sensor_type;location;lat;lon;timestamp;pressure;altitude;pressure_sealevel;temperature;humidity
27014;BME280;14556;52.222;4.510;2023-04-28T00:02:07;100680.19;;;7.29;94.44
27014;BME280;14556;52.222;4.510;2023-04-28T00:04:33;100680.38;;;7.28;94.73
27014;BME280;14556;52.222;4.510;2023-04-28T00:07:00;100670.09;;;7.24;93.87
27014;BME280;14556;52.222;4.510;2023-04-28T00:09:27;100663.75;;;7.25;92.61
27014;BME280;14556;52.222;4.510;2023-04-28T00:11:54;100652.47;;;7.23;95.10
27014;BME280;14556;52.222;4.510;2023-04-28T00:14:20;100655.97;;;7.24;99.01
27014;BME280;14556;52.222;4.510;2023-04-28T00:16:46;100640.38;;;7.21;94.50
27014;BME280;14556;52.222;4.510;2023-04-28T00:19:13;100641.34;;;7.20;97.76
27014;BME280;14556;52.222;4.510;2023-04-28T00:21:40;100639.06;;;7.17;98.75
27014;BME280;14556;52.222;4.510;2023-04-28T00:24:06;100636.59;;;7.15;95.50
27014;BME280;14556;52.222;4.510;2023-04-28T00:26:33;100630.63;;;7.13;95.20
27014;BME280;14556;52.222;4.510;2023-04-28T00:29:00;100632.09;;;7.16;100.00
27014;BME280;14556;52.222;4.510;2023-04-28T00:31:26;100634.75;;;7.16;97.95
27014;BME280;14556;52.222;4.510;2023-04-28T00:33:53;100627.16;;;7.12;99.76
27014;BME280;14556;52.222;4.510;2023-04-28T00:36:19;100633.47;;;7.11;100.00
27014;BME280;14556;52.222;4.510;2023-04-28T00:38:46;100623.66;;;7.12;100.00
27014;BME280;14556;52.222;4.510;2023-04-28T00:41:13;100613.19;;;7.10;100.00
27014;BME280;14556;52.222;4.510;2023-04-28T00:43:48;100615.38;;;7.07;100.00
27014;BME280;14556;52.222;4.510;2023-04-28T00:46:20;100612.09;;;7.05;100.00
27014;BME280;14556;52.222;4.510;2023-04-28T00:48:48;100612.09;;;7.05;100.00
27014;BME280;14556;52.222;4.510;2023-04-28T00:51:15;100611.78;;;6.99;100.00
27014;BME280;14556;52.222;4.510;2023-04-28T00:53:43;100610.78;;;7.00;100.00
27014;BME280;14556;52.222;4.510;2023-04-28T00:56:09;100600.88;;;6.94;100.00
27014;BME280;14556;52.222;4.510;2023-04-28T00:58:37;100599.41;;;6.92;100.00
27014;BME280;14556;52.222;4.510;2023-04-28T01:01:04;100597.03;;;6.97;100.00
27014;BME280;14556;52.222;4.510;2023-04-28T01:03:36;100592.72;;;6.96;100.00
27014;BME280;14556;52.222;4.510;2023-04-28T01:06:05;100585.94;;;6.93;100.00
27014;BME280;14556;52.222;4.510;2023-04-28T01:08:33;100586.00;;;6.85;100.00
27014;BME280;14556;52.222;4.510;2023-04-28T01:11:00;100589.41;;;6.94;100.00
27014;BME280;14556;52.222;4.510;2023-04-28T01:13:27;100593.25;;;6.91;100.00
27014;BME280;14556;52.222;4.510;2023-04-28T01:15:54;100585.47;;;6.89;100.00
27014;BME280;14556;52.222;4.510;2023-04-28T01:18:21;100574.53;;;6.84;100.00
27014;BME280;14556;52.222;4.510;2023-04-28T01:20:48;100576.47;;;6.91;100.00
27014;BME280;14556;52.222;4.510;2023-04-28T01:23:15;100565.19;;;6.88;100.00
27014;BME280;14556;52.222;4.510;2023-04-28T01:25:43;100568.50;;;6.91;100.00
27014;BME280;14556;52.222;4.510;2023-04-28T01:28:10;100567.84;;;6.88;100.00
27014;BME280;14556;52.222;4.510;2023-04-28T01:30:37;100563.19;;;6.91;100.00
27014;BME280;14556;52.222;4.510;2023-04-28T01:33:03;100550.91;;;6.89;100.00
27014;BME280;14556;52.222;4.510;2023-04-28T01:35:30;100551.69;;;6.90;100.00
27014;BME280;14556;52.222;4.510;2023-04-28T01:37:57;100546.38;;;6.90;100.00
27014;BME280;14556;52.222;4.510;2023-04-28T01:40:23;100542.28;;;6.87;100.00
27014;BME280;14556;52.222;4.510;2023-04-28T01:42:50;100551.38;;;6.93;100.00
27014;BME280;14556;52.222;4.510;2023-04-28T01:45:16;100544.38;;;6.92;100.00
27014;BME280;14556;52.222;4.510;2023-04-28T01:47:43;100532.72;;;6.78;100.00
27014;BME280;14556;52.222;4.510;2023-04-28T01:50:09;100551.69;;;6.90;100.00
27014;BME280;14556;52.222;4.510;2023-04-28T01:52:36;100549.03;;;6.90;100.00
27014;BME280;14556;52.222;4.510;2023-04-28T01:55:03;100538.97;;;6.85;100.00
27014;BME280;14556;52.222;4.510;2023-04-28T01:57:30;100529.16;;;6.86;100.00
27014;BME280;14556;52.222;4.510;2023-04-28T01:59:57;100512.75;;;6.82;100.00
27014;BME280;14556;52.222;4.510;2023-04-28T02:02:24;100526.69;;;6.84;100.00
27014;BME280;14556;52.222;4.510;2023-04-28T02:04:51;100531.34;;;6.82;100.00
27014;BME280;14556;52.222;4.510;2023-04-28T02:07:18;100510.97;;;6.74;100.00
27014;BME280;14556;52.222;4.510;2023-04-28T02:09:44;100510.66;;;6.77;100.00
27014;BME280;14556;52.222;4.510;2023-04-28T02:12:11;100521.38;;;6.84;100.00
27014;BME280;14556;52.222;4.510;2023-04-28T02:14:38;100517.22;;;6.82;100.00
27014;BME280;14556;52.222;4.510;2023-04-28T02:17:04;100504.78;;;6.82;100.00
27014;BME280;14556;52.222;4.510;2023-04-28T02:19:31;100488.44;;;6.70;100.00
27014;BME280;14556;52.222;4.510;2023-04-28T02:21:57;100494.84;;;6.76;100.00
27014;BME280;14556;52.222;4.510;2023-04-28T02:24:24;100493.03;;;6.76;100.00
27014;BME280;14556;52.222;4.510;2023-04-28T02:26:50;100480.28;;;6.72;100.00
27014;BME280;14556;52.222;4.510;2023-04-28T02:29:17;100486.88;;;6.76;100.00
27014;BME280;14556;52.222;4.510;2023-04-28T02:31:43;100475.63;;;6.74;100.00
27014;BME280;14556;52.222;4.510;2023-04-28T02:34:10;100472.97;;;6.74;100.00
27014;BME280;14556;52.222;4.510;2023-04-28T02:36:38;100466.34;;;6.70;100.00
27014;BME280;14556;52.222;4.510;2023-04-28T02:39:04;100459.19;;;6.70;100.00
27014;BME280;14556;52.222;4.510;2023-04-28T02:41:30;100466.81;;;6.73;100.00
27014;BME280;14556;52.222;4.510;2023-04-28T02:43:57;100463.97;;;6.75;100.00
27014;BME280;14556;52.222;4.510;2023-04-28T02:46:23;100461.13;;;6.76;100.00
27014;BME280;14556;52.222;4.510;2023-04-28T02:48:50;100458.47;;;6.76;100.00
27014;BME280;14556;52.222;4.510;2023-04-28T02:51:16;100462.78;;;6.77;100.00
27014;BME280;14556;52.222;4.510;2023-04-28T02:53:43;100450.31;;;6.78;100.00
27014;BME280;14556;52.222;4.510;2023-04-28T02:56:09;100444.34;;;6.76;100.00
27014;BME280;14556;52.222;4.510;2023-04-28T02:58:36;100441.53;;;6.77;100.00
27014;BME280;14556;52.222;4.510;2023-04-28T03:01:02;100446.84;;;6.77;100.00
27014;BME280;14556;52.222;4.510;2023-04-28T03:03:29;100438.41;;;6.74;100.00
27014;BME280;14556;52.222;4.510;2023-04-28T03:05:56;100437.38;;;6.75;100.00
27014;BME280;14556;52.222;4.510;2023-04-28T03:08:22;100423.06;;;6.76;100.00
27014;BME280;14556;52.222;4.510;2023-04-28T03:10:49;100426.75;;;6.75;100.00
27014;BME280;14556;52.222;4.510;2023-04-28T03:13:15;100406.69;;;6.72;100.00
27014;BME280;14556;52.222;4.510;2023-04-28T03:15:42;100391.19;;;6.61;100.00
27014;BME280;14556;52.222;4.510;2023-04-28T03:18:08;100415.66;;;6.71;100.00
27014;BME280;14556;52.222;4.510;2023-04-28T03:20:35;100414.81;;;6.71;100.00
27014;BME280;14556;52.222;4.510;2023-04-28T03:23:01;100405.84;;;6.72;100.00
27014;BME280;14556;52.222;4.510;2023-04-28T03:25:29;100397.41;;;6.68;100.00
27014;BME280;14556;52.222;4.510;2023-04-28T03:27:55;100400.44;;;6.65;100.00
27014;BME280;14556;52.222;4.510;2023-04-28T03:30:22;100397.41;;;6.68;100.00
27014;BME280;14556;52.222;4.510;2023-04-28T03:32:48;100395.13;;;6.65;100.00
27014;BME280;14556;52.222;4.510;2023-04-28T03:35:15;100387.69;;;6.60;100.00
27014;BME280;14556;52.222;4.510;2023-04-28T03:37:41;100380.56;;;6.61;100.00
27014;BME280;14556;52.222;4.510;2023-04-28T03:40:08;100387.69;;;6.60;100.00
27014;BME280;14556;52.222;4.510;2023-04-28T03:42:35;100384.03;;;6.61;100.00
27014;BME280;14556;52.222;4.510;2023-04-28T03:45:02;100374.97;;;6.56;100.00
27014;BME280;14556;52.222;4.510;2023-04-28T03:47:29;100385.41;;;6.57;100.00
27014;BME280;14556;52.222;4.510;2023-04-28T03:49:55;100391.38;;;6.59;100.00
27014;BME280;14556;52.222;4.510;2023-04-28T03:52:24;100396.22;;;6.56;100.00
27014;BME280;14556;52.222;4.510;2023-04-28T03:54:51;100396.59;;;6.52;100.00
27014;BME280;14556;52.222;4.510;2023-04-28T03:57:17;100407.69;;;6.56;100.00
27014;BME280;14556;52.222;4.510;2023-04-28T03:59:44;100395.03;;;6.58;100.00
27014;BME280;14556;52.222;4.510;2023-04-28T04:02:11;100391.75;;;6.56;100.00
27014;BME280;14556;52.222;4.510;2023-04-28T04:04:37;100399.34;;;6.59;100.00
27014;BME280;14556;52.222;4.510;2023-04-28T04:07:04;100389.91;;;6.57;100.00
27014;BME280;14556;52.222;4.510;2023-04-28T04:09:31;100389.09;;;6.56;100.00
27014;BME280;14556;52.222;4.510;2023-04-28T04:11:57;100387.25;;;6.57;100.00
27014;BME280;14556;52.222;4.510;2023-04-28T04:14:24;100382.94;;;6.56;100.00
27014;BME280;14556;52.222;4.510;2023-04-28T04:16:50;100385.59;;;6.56;100.00
27014;BME280;14556;52.222;4.510;2023-04-28T04:19:17;100385.78;;;6.54;100.00
27014;BME280;14556;52.222;4.510;2023-04-28T04:21:43;100384.28;;;6.51;100.00
27014;BME280;14556;52.222;4.510;2023-04-28T04:24:10;100396.41;;;6.54;100.00
27014;BME280;14556;52.222;4.510;2023-04-28T04:26:36;100395.38;;;6.55;100.00
27014;BME280;14556;52.222;4.510;2023-04-28T04:29:02;100398.69;;;6.57;100.00
27014;BME280;14556;52.222;4.510;2023-04-28T04:31:29;100407.69;;;6.56;100.00
27014;BME280;14556;52.222;4.510;2023-04-28T04:33:56;100402.38;;;6.56;100.00
27014;BME280;14556;52.222;4.510;2023-04-28T04:36:23;100403.56;;;6.53;100.00
27014;BME280;14556;52.222;4.510;2023-04-28T04:38:49;100395.13;;;6.50;100.00
27014;BME280;14556;52.222;4.510;2023-04-28T04:41:19;100401.72;;;6.54;100.00
27014;BME280;14556;52.222;4.510;2023-04-28T04:43:46;100388.72;;;6.44;100.00
27014;BME280;14556;52.222;4.510;2023-04-28T04:46:12;100398.41;;;6.37;100.00
27014;BME280;14556;52.222;4.510;2023-04-28T04:48:39;100392.91;;;6.23;100.00
27014;BME280;14556;52.222;4.510;2023-04-28T04:51:05;100376.81;;;6.01;100.00
27014;BME280;14556;52.222;4.510;2023-04-28T04:53:32;100390.03;;;5.86;100.00
27014;BME280;14556;52.222;4.510;2023-04-28T04:55:59;100367.28;;;5.68;100.00
27014;BME280;14556;52.222;4.510;2023-04-28T04:58:26;100343.28;;;5.62;100.00
27014;BME280;14556;52.222;4.510;2023-04-28T05:00:52;100326.63;;;5.53;100.00
27014;BME280;14556;52.222;4.510;2023-04-28T05:03:19;100303.44;;;5.47;100.00
27014;BME280;14556;52.222;4.510;2023-04-28T05:05:46;100286.94;;;5.36;100.00
27014;BME280;14556;52.222;4.510;2023-04-28T05:08:13;100297.53;;;5.36;100.00
27014;BME280;14556;52.222;4.510;2023-04-28T05:10:39;100294.88;;;5.36;100.00
27014;BME280;14556;52.222;4.510;2023-04-28T05:13:06;100306.72;;;5.49;100.00
27014;BME280;14556;52.222;4.510;2023-04-28T05:15:32;100314.34;;;5.52;100.00
27014;BME280;14556;52.222;4.510;2023-04-28T05:17:59;100320.09;;;5.55;100.00
27014;BME280;14556;52.222;4.510;2023-04-28T05:20:25;100314.47;;;5.59;100.00
27014;BME280;14556;52.222;4.510;2023-04-28T05:22:52;100317.22;;;5.65;100.00
27014;BME280;14556;52.222;4.510;2023-04-28T05:25:18;100293.75;;;5.54;100.00
27014;BME280;14556;52.222;4.510;2023-04-28T05:27:45;100319.34;;;5.70;100.00
27014;BME280;14556;52.222;4.510;2023-04-28T05:30:12;100326.28;;;5.71;100.00
27014;BME280;14556;52.222;4.510;2023-04-28T05:32:38;100338.38;;;5.74;100.00
27014;BME280;14556;52.222;4.510;2023-04-28T05:35:05;100333.72;;;5.76;100.00
27014;BME280;14556;52.222;4.510;2023-04-28T05:37:32;100339.22;;;5.74;100.00
27014;BME280;14556;52.222;4.510;2023-04-28T05:39:59;100341.69;;;5.76;100.00
27014;BME280;14556;52.222;4.510;2023-04-28T05:42:26;100338.31;;;5.82;100.00
27014;BME280;14556;52.222;4.510;2023-04-28T05:44:52;100335.47;;;5.84;100.00
27014;BME280;14556;52.222;4.510;2023-04-28T05:47:19;100330.53;;;5.80;100.00
27014;BME280;14556;52.222;4.510;2023-04-28T05:49:45;100349.03;;;5.89;100.00
27014;BME280;14556;52.222;4.510;2023-04-28T05:52:12;100350.97;;;5.95;100.00
27014;BME280;14556;52.222;4.510;2023-04-28T05:54:38;100360.88;;;6.01;100.00
27014;BME280;14556;52.222;4.510;2023-04-28T05:57:06;100357.03;;;6.04;100.00
27014;BME280;14556;52.222;4.510;2023-04-28T05:59:33;100358.72;;;6.05;100.00
27014;BME280;14556;52.222;4.510;2023-04-28T06:02:00;100360.00;;;6.09;100.00
27014;BME280;14556;52.222;4.510;2023-04-28T06:04:26;100369.72;;;6.17;100.00
27014;BME280;14556;52.222;4.510;2023-04-28T06:06:53;100359.28;;;6.15;100.00
27014;BME280;14556;52.222;4.510;2023-04-28T06:09:20;100357.81;;;6.28;100.00
27014;BME280;14556;52.222;4.510;2023-04-28T06:11:47;100357.47;;;6.31;100.00
27014;BME280;14556;52.222;4.510;2023-04-28T06:14:13;100349.75;;;6.36;100.00
27014;BME280;14556;52.222;4.510;2023-04-28T06:16:40;100341.78;;;6.36;100.00
27014;BME280;14556;52.222;4.510;2023-04-28T06:19:07;100342.72;;;6.44;100.00
27014;BME280;14556;52.222;4.510;2023-04-28T06:21:33;100344.00;;;6.48;100.00
27014;BME280;14556;52.222;4.510;2023-04-28T06:24:00;100336.84;;;6.48;100.00
27014;BME280;14556;52.222;4.510;2023-04-28T06:26:27;100329.31;;;6.52;100.00
27014;BME280;14556;52.222;4.510;2023-04-28T06:28:54;100339.25;;;6.58;100.00
27014;BME280;14556;52.222;4.510;2023-04-28T06:31:20;100332.72;;;6.61;100.00
27014;BME280;14556;52.222;4.510;2023-04-28T06:33:47;100328.88;;;6.63;100.00
27014;BME280;14556;52.222;4.510;2023-04-28T06:36:13;100325.38;;;6.63;100.00
27014;BME280;14556;52.222;4.510;2023-04-28T06:38:43;100330.50;;;6.64;100.00
27014;BME280;14556;52.222;4.510;2023-04-28T06:41:09;100336.28;;;6.68;100.00
27014;BME280;14556;52.222;4.510;2023-04-28T06:43:37;100312.84;;;6.57;100.00
27014;BME280;14556;52.222;4.510;2023-04-28T06:46:04;100321.97;;;6.69;100.00
27014;BME280;14556;52.222;4.510;2023-04-28T06:48:30;100329.16;;;6.69;100.00
27014;BME280;14556;52.222;4.510;2023-04-28T06:50:57;100330.13;;;6.68;100.00
27014;BME280;14556;52.222;4.510;2023-04-28T06:53:23;100334.28;;;6.70;100.00
27014;BME280;14556;52.222;4.510;2023-04-28T06:55:50;100333.25;;;6.71;100.00
27014;BME280;14556;52.222;4.510;2023-04-28T06:58:16;100333.44;;;6.70;100.00
27014;BME280;14556;52.222;4.510;2023-04-28T07:00:43;100329.41;;;6.74;100.00
27014;BME280;14556;52.222;4.510;2023-04-28T07:03:10;100329.94;;;6.69;100.00
27014;BME280;14556;52.222;4.510;2023-04-28T07:05:36;100326.50;;;6.69;100.00
27014;BME280;14556;52.222;4.510;2023-04-28T07:08:03;100326.50;;;6.69;100.00
27014;BME280;14556;52.222;4.510;2023-04-28T07:10:30;100334.72;;;6.74;100.00
27014;BME280;14556;52.222;4.510;2023-04-28T07:12:56;100331.25;;;6.73;100.00
27014;BME280;14556;52.222;4.510;2023-04-28T07:15:24;100322.72;;;6.63;100.00
27014;BME280;14556;52.222;4.510;2023-04-28T07:17:51;100330.88;;;6.61;100.00
27014;BME280;14556;52.222;4.510;2023-04-28T07:20:17;100336.84;;;6.63;100.00
27014;BME280;14556;52.222;4.510;2023-04-28T07:22:44;100333.16;;;6.64;100.00
27014;BME280;14556;52.222;4.510;2023-04-28T07:25:10;100322.66;;;6.56;100.00
27014;BME280;14556;52.222;4.510;2023-04-28T07:27:37;100323.81;;;6.69;100.00
27014;BME280;14556;52.222;4.510;2023-04-28T07:30:04;100318.31;;;6.70;100.00
27014;BME280;14556;52.222;4.510;2023-04-28T07:32:50;100331.88;;;6.75;100.00
27014;BME280;14556;52.222;4.510;2023-04-28T07:35:17;100339.00;;;6.90;100.00
27014;BME280;14556;52.222;4.510;2023-04-28T07:37:46;100343.50;;;6.89;100.00
27014;BME280;14556;52.222;4.510;2023-04-28T07:40:12;100318.22;;;6.79;100.00
27014;BME280;14556;52.222;4.510;2023-04-28T07:42:40;100351.75;;;6.95;100.00
27014;BME280;14556;52.222;4.510;2023-04-28T07:45:07;100350.91;;;6.94;100.00
27014;BME280;14556;52.222;4.510;2023-04-28T07:47:34;100342.94;;;6.94;100.00
27014;BME280;14556;52.222;4.510;2023-04-28T07:50:03;100341.75;;;6.97;100.00
27014;BME280;14556;52.222;4.510;2023-04-28T07:52:32;100342.56;;;6.97;100.00
27014;BME280;14556;52.222;4.510;2023-04-28T07:54:59;100339.25;;;6.95;100.00
27014;BME280;14556;52.222;4.510;2023-04-28T07:57:25;100336.16;;;6.92;100.00
27014;BME280;14556;52.222;4.510;2023-04-28T07:59:52;100330.84;;;6.92;100.00
27014;BME280;14556;52.222;4.510;2023-04-28T08:02:18;100330.91;;;6.98;100.00
27014;BME280;14556;52.222;4.510;2023-04-28T08:04:46;100331.72;;;6.99;100.00
27014;BME280;14556;52.222;4.510;2023-04-28T08:07:13;100319.56;;;6.89;100.00
27014;BME280;14556;52.222;4.510;2023-04-28T08:09:39;100337.03;;;6.99;100.00
27014;BME280;14556;52.222;4.510;2023-04-28T08:12:08;100342.81;;;7.03;100.00
27014;BME280;14556;52.222;4.510;2023-04-28T08:14:34;100339.63;;;7.07;100.00
27014;BME280;14556;52.222;4.510;2023-04-28T08:17:01;100335.75;;;7.10;100.00
27014;BME280;14556;52.222;4.510;2023-04-28T08:19:28;100338.22;;;7.11;100.00
27014;BME280;14556;52.222;4.510;2023-04-28T08:21:54;100334.38;;;7.14;100.00
27014;BME280;14556;52.222;4.510;2023-04-28T08:24:21;100333.91;;;7.10;100.00
27014;BME280;14556;52.222;4.510;2023-04-28T08:26:47;100332.19;;;7.03;100.00
27014;BME280;14556;52.222;4.510;2023-04-28T08:29:15;100324.38;;;7.16;100.00
27014;BME280;14556;52.222;4.510;2023-04-28T08:31:42;100327.53;;;7.27;100.00
27014;BME280;14556;52.222;4.510;2023-04-28T08:34:09;100324.09;;;7.33;100.00
27014;BME280;14556;52.222;4.510;2023-04-28T08:36:35;100325.94;;;7.32;100.00
27014;BME280;14556;52.222;4.510;2023-04-28T08:39:02;100334.75;;;7.33;100.00
27014;BME280;14556;52.222;4.510;2023-04-28T08:41:31;100325.88;;;7.25;100.00
27014;BME280;14556;52.222;4.510;2023-04-28T08:43:58;100336.56;;;7.32;100.00
27014;BME280;14556;52.222;4.510;2023-04-28T08:46:26;100334.16;;;7.37;100.00
27014;BME280;14556;52.222;4.510;2023-04-28T08:48:59;100330.06;;;7.35;100.00
27014;BME280;14556;52.222;4.510;2023-04-28T08:51:33;100312.03;;;7.30;100.00
27014;BME280;14556;52.222;4.510;2023-04-28T08:54:02;100306.19;;;7.42;100.00
27014;BME280;14556;52.222;4.510;2023-04-28T08:56:50;100318.59;;;7.56;100.00
27014;BME280;14556;52.222;4.510;2023-04-28T08:59:17;100329.25;;;7.56;100.00
27014;BME280;14556;52.222;4.510;2023-04-28T09:01:47;100325.16;;;7.60;100.00
27014;BME280;14556;52.222;4.510;2023-04-28T09:04:16;100321.31;;;7.63;100.00
27014;BME280;14556;52.222;4.510;2023-04-28T09:06:43;100322.56;;;7.67;100.00
27014;BME280;14556;52.222;4.510;2023-04-28T09:11:54;100311.59;;;7.77;100.00
27014;BME280;14556;52.222;4.510;2023-04-28T09:14:28;100313.66;;;7.82;100.00
27014;BME280;14556;52.222;4.510;2023-04-28T09:16:55;100314.78;;;7.94;100.00
27014;BME280;14556;52.222;4.510;2023-04-28T09:19:22;100306.41;;;7.97;100.00
27014;BME280;14556;52.222;4.510;2023-04-28T09:21:55;100311.69;;;7.91;100.00
27014;BME280;14556;52.222;4.510;2023-04-28T09:24:29;100312.22;;;7.79;100.00
27014;BME280;14556;52.222;4.510;2023-04-28T09:26:58;100315.47;;;8.03;100.00
27014;BME280;14556;52.222;4.510;2023-04-28T09:29:25;100313.06;;;8.15;100.00
27014;BME280;14556;52.222;4.510;2023-04-28T09:31:51;100299.88;;;8.00;100.00
27014;BME280;14556;52.222;4.510;2023-04-28T09:34:19;100298.13;;;8.14;100.00
27014;BME280;14556;52.222;4.510;2023-04-28T09:36:47;100303.44;;;8.14;100.00
27014;BME280;14556;52.222;4.510;2023-04-28T09:39:14;100298.22;;;7.99;100.00
27014;BME280;14556;52.222;4.510;2023-04-28T09:41:43;100300.56;;;8.09;100.00
27014;BME280;14556;52.222;4.510;2023-04-28T09:44:15;100297.72;;;8.17;100.00
27014;BME280;14556;52.222;4.510;2023-04-28T09:46:43;100305.09;;;8.15;100.00
27014;BME280;14556;52.222;4.510;2023-04-28T09:49:10;100294.00;;;8.12;100.00
27014;BME280;14556;52.222;4.510;2023-04-28T09:51:37;100297.28;;;8.14;100.00
27014;BME280;14556;52.222;4.510;2023-04-28T09:54:05;100298.34;;;8.19;100.00
27014;BME280;14556;52.222;4.510;2023-04-28T09:56:33;100292.31;;;8.04;100.00
27014;BME280;14556;52.222;4.510;2023-04-28T09:59:00;100293.97;;;8.05;100.00
27014;BME280;14556;52.222;4.510;2023-04-28T10:01:31;100295.59;;;8.06;100.00
27014;BME280;14556;52.222;4.510;2023-04-28T10:03:59;100296.03;;;8.09;100.00
27014;BME280;14556;52.222;4.510;2023-04-28T10:06:26;100297.28;;;8.14;100.00
27014;BME280;14556;52.222;4.510;2023-04-28T10:08:54;100291.09;;;8.06;100.00
27014;BME280;14556;52.222;4.510;2023-04-28T10:11:24;100288.72;;;8.25;100.00
27014;BME280;14556;52.222;4.510;2023-04-28T10:13:52;100288.19;;;8.37;100.00
27014;BME280;14556;52.222;4.510;2023-04-28T10:16:19;100288.00;;;8.38;100.00
27014;BME280;14556;52.222;4.510;2023-04-28T10:18:46;100289.13;;;8.22;100.00
27014;BME280;14556;52.222;4.510;2023-04-28T10:21:17;100290.66;;;8.38;100.00
27014;BME280;14556;52.222;4.510;2023-04-28T10:29:32;100295.75;;;8.33;100.00
27014;BME280;14556;52.222;4.510;2023-04-28T10:32:23;100298.66;;;8.38;100.00
27014;BME280;14556;52.222;4.510;2023-04-28T10:34:52;100297.88;;;8.51;100.00
27014;BME280;14556;52.222;4.510;2023-04-28T10:37:18;100309.63;;;8.57;100.00
27014;BME280;14556;52.222;4.510;2023-04-28T10:42:51;100291.88;;;8.42;100.00
27014;BME280;14556;52.222;4.510;2023-04-28T10:48:52;100299.19;;;8.62;100.00
27014;BME280;14556;52.222;4.510;2023-04-28T10:56:21;100312.09;;;8.58;100.00
27014;BME280;14556;52.222;4.510;2023-04-28T10:58:57;100300.25;;;8.68;100.00
27014;BME280;14556;52.222;4.510;2023-04-28T11:01:27;100304.34;;;8.70;100.00
27014;BME280;14556;52.222;4.510;2023-04-28T11:03:56;100306.44;;;8.75;100.00
27014;BME280;14556;52.222;4.510;2023-04-28T11:06:33;100303.53;;;8.70;100.00
27014;BME280;14556;52.222;4.510;2023-04-28T11:09:03;100295.75;;;8.68;100.00
27014;BME280;14556;52.222;4.510;2023-04-28T11:14:36;100302.53;;;8.78;100.00
27014;BME280;14556;52.222;4.510;2023-04-28T11:17:08;100314.25;;;8.90;100.00
27014;BME280;14556;52.222;4.510;2023-04-28T11:19:40;100308.94;;;8.90;100.00
27014;BME280;14556;52.222;4.510;2023-04-28T11:22:18;100296.22;;;8.86;100.00
27014;BME280;14556;52.222;4.510;2023-04-28T11:24:56;100324.19;;;9.10;100.00
27014;BME280;14556;52.222;4.510;2023-04-28T11:27:27;100318.84;;;9.10;100.00
27014;BME280;14556;52.222;4.510;2023-04-28T11:29:53;100312.66;;;8.96;100.00
27014;BME280;14556;52.222;4.510;2023-04-28T11:32:32;100312.00;;;8.80;100.00
27014;BME280;14556;52.222;4.510;2023-04-28T11:34:59;100310.31;;;8.79;100.00
27014;BME280;14556;52.222;4.510;2023-04-28T11:37:26;100296.22;;;8.86;100.00
27014;BME280;14556;52.222;4.510;2023-04-28T11:39:53;100309.97;;;8.96;100.00
27014;BME280;14556;52.222;4.510;2023-04-28T11:42:19;100315.75;;;9.06;100.00
27014;BME280;14556;52.222;4.510;2023-04-28T11:44:50;100305.88;;;9.00;100.00
27014;BME280;14556;52.222;4.510;2023-04-28T11:47:30;100314.94;;;9.06;100.00
27014;BME280;14556;52.222;4.510;2023-04-28T11:49:58;100318.63;;;8.98;100.00
27014;BME280;14556;52.222;4.510;2023-04-28T11:52:24;100324.97;;;9.04;100.00
27014;BME280;14556;52.222;4.510;2023-04-28T11:54:57;100324.59;;;9.07;100.00
27014;BME280;14556;52.222;4.510;2023-04-28T11:57:25;100331.38;;;9.16;100.00
27014;BME280;14556;52.222;4.510;2023-04-28T11:59:52;100324.19;;;9.17;100.00
27014;BME280;14556;52.222;4.510;2023-04-28T12:02:26;100324.41;;;9.22;100.00
27014;BME280;14556;52.222;4.510;2023-04-28T12:05:05;100313.72;;;9.22;100.00
27014;BME280;14556;52.222;4.510;2023-04-28T12:07:42;100320.06;;;9.21;100.00
27014;BME280;14556;52.222;4.510;2023-04-28T12:10:13;100305.50;;;9.10;100.00
27014;BME280;14556;52.222;4.510;2023-04-28T12:12:45;100329.97;;;9.41;100.00
27014;BME280;14556;52.222;4.510;2023-04-28T12:15:15;100328.50;;;9.25;100.00
27014;BME280;14556;52.222;4.510;2023-04-28T12:17:45;100332.84;;;9.39;100.00
27014;BME280;14556;52.222;4.510;2023-04-28T12:20:32;100332.44;;;9.42;100.00
27014;BME280;14556;52.222;4.510;2023-04-28T12:23:00;100326.03;;;9.30;100.00
27014;BME280;14556;52.222;4.510;2023-04-28T12:25:28;100327.91;;;9.36;100.00
27014;BME280;14556;52.222;4.510;2023-04-28T12:28:02;100341.50;;;9.55;100.00
27014;BME280;14556;52.222;4.510;2023-04-28T12:30:33;100338.81;;;9.35;100.00
27014;BME280;14556;52.222;4.510;2023-04-28T12:33:00;100328.34;;;9.33;100.00
27014;BME280;14556;52.222;4.510;2023-04-28T12:35:27;100341.50;;;9.55;100.00
27014;BME280;14556;52.222;4.510;2023-04-28T12:37:54;100337.41;;;9.52;100.00
27014;BME280;14556;52.222;4.510;2023-04-28T12:40:22;100343.31;;;9.48;100.00
27014;BME280;14556;52.222;4.510;2023-04-28T12:42:49;100344.34;;;9.40;100.00
27014;BME280;14556;52.222;4.510;2023-04-28T12:45:16;100346.59;;;9.36;100.00
27014;BME280;14556;52.222;4.510;2023-04-28T12:47:43;100352.78;;;9.57;100.00
27014;BME280;14556;52.222;4.510;2023-04-28T12:50:10;100350.53;;;9.47;100.00
27014;BME280;14556;52.222;4.510;2023-04-28T12:52:36;100355.88;;;9.54;100.00
27014;BME280;14556;52.222;4.510;2023-04-28T12:55:03;100360.19;;;9.55;100.00
27014;BME280;14556;52.222;4.510;2023-04-28T12:57:30;100363.69;;;9.49;100.00
27014;BME280;14556;52.222;4.510;2023-04-28T12:59:57;100361.22;;;9.54;100.00
27014;BME280;14556;52.222;4.510;2023-04-28T13:02:23;100364.47;;;9.49;100.00
27014;BME280;14556;52.222;4.510;2023-04-28T13:04:50;100370.03;;;9.54;100.00
27014;BME280;14556;52.222;4.510;2023-04-28T13:07:18;100370.22;;;9.46;100.00
27014;BME280;14556;52.222;4.510;2023-04-28T13:09:45;100380.91;;;9.60;100.00
27014;BME280;14556;52.222;4.510;2023-04-28T13:12:13;100375.78;;;9.58;100.00
27014;BME280;14556;52.222;4.510;2023-04-28T13:14:39;100367.78;;;9.51;100.00
27014;BME280;14556;52.222;4.510;2023-04-28T13:17:06;100364.72;;;9.61;100.00